sensor_id;sensor_type;location;lat;lon;timestamp;P1;durP1;ratioP1;P2;durP2;ratioP2
42488;SDS011;28118;52.388;9.452;2022-08-05T00:01:21;19.80;;;11.85;;
42488;SDS011;28118;52.388;9.452;2022-08-05T00:03:54;24.80;;;11.50;;
42488;SDS011;28118;52.388;9.452;2022-08-05T00:06:22;16.27;;;11.73;;
42488;SDS011;28118;52.388;9.452;2022-08-05T00:08:58;24.40;;;12.90;;
42488;SDS011;28118;52.388;9.452;2022-08-05T00:11:26;26.45;;;14.13;;
42488;SDS011;28118;52.388;9.452;2022-08-05T00:14:00;24.23;;;13.15;;
42488;SDS011;28118;52.388;9.452;2022-08-05T00:16:27;16.58;;;14.45;;
42488;SDS011;28118;52.388;9.452;2022-08-05T00:19:01;23.90;;;15.18;;
42488;SDS011;28118;52.388;9.452;2022-08-05T00:21:28;28.15;;;15.10;;
42488;SDS011;28118;52.388;9.452;2022-08-05T00:23:55;23.67;;;12.15;;
42488;SDS011;28118;52.388;9.452;2022-08-05T00:26:35;29.90;;;16.33;;
42488;SDS011;28118;52.388;9.452;2022-08-05T00:29:03;33.80;;;16.95;;
42488;SDS011;28118;52.388;9.452;2022-08-05T00:31:29;26.05;;;14.75;;
42488;SDS011;28118;52.388;9.452;2022-08-05T00:34:16;31.17;;;16.48;;
42488;SDS011;28118;52.388;9.452;2022-08-05T00:37:03;18.27;;;16.15;;
42488;SDS011;28118;52.388;9.452;2022-08-05T00:39:37;25.38;;;14.93;;
42488;SDS011;28118;52.388;9.452;2022-08-05T00:42:29;23.33;;;11.50;;
42488;SDS011;28118;52.388;9.452;2022-08-05T00:44:58;20.75;;;13.45;;
42488;SDS011;28118;52.388;9.452;2022-08-05T00:47:25;18.50;;;13.35;;
42488;SDS011;28118;52.388;9.452;2022-08-05T00:50:12;25.75;;;15.13;;
42488;SDS011;28118;52.388;9.452;2022-08-05T00:52:40;21.92;;;14.57;;
42488;SDS011;28118;52.388;9.452;2022-08-05T00:55:10;20.77;;;13.55;;
42488;SDS011;28118;52.388;9.452;2022-08-05T00:57:37;23.70;;;16.75;;
42488;SDS011;28118;52.388;9.452;2022-08-05T01:00:24;32.10;;;15.63;;
42488;SDS011;28118;52.388;9.452;2022-08-05T01:02:54;25.10;;;14.32;;
42488;SDS011;28118;52.388;9.452;2022-08-05T01:05:22;23.13;;;12.82;;
42488;SDS011;28118;52.388;9.452;2022-08-05T01:07:52;18.63;;;14.27;;
42488;SDS011;28118;52.388;9.452;2022-08-05T01:10:43;16.67;;;14.52;;
42488;SDS011;28118;52.388;9.452;2022-08-05T01:16:28;15.45;;;11.18;;
42488;SDS011;28118;52.388;9.452;2022-08-05T01:19:01;17.48;;;11.50;;
42488;SDS011;28118;52.388;9.452;2022-08-05T01:21:45;33.67;;;14.02;;
42488;SDS011;28118;52.388;9.452;2022-08-05T01:24:46;18.77;;;13.07;;
42488;SDS011;28118;52.388;9.452;2022-08-05T01:30:20;14.40;;;10.65;;
42488;SDS011;28118;52.388;9.452;2022-08-05T01:33:00;18.25;;;11.45;;
42488;SDS011;28118;52.388;9.452;2022-08-05T01:35:34;12.38;;;10.63;;
42488;SDS011;28118;52.388;9.452;2022-08-05T01:38:18;22.98;;;11.38;;
42488;SDS011;28118;52.388;9.452;2022-08-05T01:40:57;34.58;;;14.55;;
42488;SDS011;28118;52.388;9.452;2022-08-05T01:43:26;19.63;;;12.07;;
42488;SDS011;28118;52.388;9.452;2022-08-05T01:45:55;18.83;;;11.60;;
42488;SDS011;28118;52.388;9.452;2022-08-05T01:48:32;20.80;;;12.98;;
42488;SDS011;28118;52.388;9.452;2022-08-05T01:51:01;21.02;;;14.38;;
42488;SDS011;28118;52.388;9.452;2022-08-05T01:53:38;24.42;;;12.35;;
42488;SDS011;28118;52.388;9.452;2022-08-05T01:56:23;14.43;;;13.07;;
42488;SDS011;28118;52.388;9.452;2022-08-05T01:59:15;17.52;;;13.18;;
42488;SDS011;28118;52.388;9.452;2022-08-05T02:01:44;17.50;;;12.82;;
42488;SDS011;28118;52.388;9.452;2022-08-05T02:04:15;15.50;;;14.00;;
42488;SDS011;28118;52.388;9.452;2022-08-05T02:06:46;16.33;;;11.38;;
42488;SDS011;28118;52.388;9.452;2022-08-05T02:09:13;23.40;;;12.40;;
42488;SDS011;28118;52.388;9.452;2022-08-05T02:11:44;18.08;;;11.65;;
42488;SDS011;28118;52.388;9.452;2022-08-05T02:17:16;21.88;;;14.73;;
42488;SDS011;28118;52.388;9.452;2022-08-05T02:20:13;16.35;;;12.32;;
42488;SDS011;28118;52.388;9.452;2022-08-05T02:22:46;12.82;;;10.35;;
42488;SDS011;28118;52.388;9.452;2022-08-05T02:25:21;18.67;;;12.25;;
42488;SDS011;28118;52.388;9.452;2022-08-05T02:27:58;20.50;;;14.00;;
42488;SDS011;28118;52.388;9.452;2022-08-05T02:30:30;18.40;;;13.00;;
42488;SDS011;28118;52.388;9.452;2022-08-05T02:33:17;19.27;;;13.68;;
42488;SDS011;28118;52.388;9.452;2022-08-05T02:36:00;20.33;;;9.95;;
42488;SDS011;28118;52.388;9.452;2022-08-05T02:38:29;17.25;;;12.98;;
42488;SDS011;28118;52.388;9.452;2022-08-05T02:41:00;19.80;;;13.40;;
42488;SDS011;28118;52.388;9.452;2022-08-05T02:43:40;18.35;;;13.35;;
42488;SDS011;28118;52.388;9.452;2022-08-05T02:46:28;17.08;;;12.65;;
42488;SDS011;28118;52.388;9.452;2022-08-05T02:48:55;22.98;;;16.67;;
42488;SDS011;28118;52.388;9.452;2022-08-05T02:51:23;15.57;;;13.40;;
42488;SDS011;28118;52.388;9.452;2022-08-05T02:54:11;20.38;;;17.35;;
42488;SDS011;28118;52.388;9.452;2022-08-05T02:56:59;21.42;;;12.55;;
42488;SDS011;28118;52.388;9.452;2022-08-05T02:59:27;24.55;;;14.65;;
42488;SDS011;28118;52.388;9.452;2022-08-05T03:02:13;24.60;;;15.50;;
42488;SDS011;28118;52.388;9.452;2022-08-05T03:04:42;20.63;;;14.30;;
42488;SDS011;28118;52.388;9.452;2022-08-05T03:07:10;20.38;;;13.70;;
42488;SDS011;28118;52.388;9.452;2022-08-05T03:09:58;22.73;;;16.85;;
42488;SDS011;28118;52.388;9.452;2022-08-05T03:12:35;27.05;;;14.57;;
42488;SDS011;28118;52.388;9.452;2022-08-05T03:15:03;22.15;;;14.55;;
42488;SDS011;28118;52.388;9.452;2022-08-05T03:17:34;25.60;;;14.40;;
42488;SDS011;28118;52.388;9.452;2022-08-05T03:20:10;16.65;;;13.05;;
42488;SDS011;28118;52.388;9.452;2022-08-05T03:22:38;16.77;;;14.23;;
42488;SDS011;28118;52.388;9.452;2022-08-05T03:25:15;20.27;;;13.38;;
42488;SDS011;28118;52.388;9.452;2022-08-05T03:28:05;21.48;;;13.43;;
42488;SDS011;28118;52.388;9.452;2022-08-05T03:30:33;14.27;;;12.32;;
42488;SDS011;28118;52.388;9.452;2022-08-05T03:33:03;14.23;;;12.25;;
42488;SDS011;28118;52.388;9.452;2022-08-05T03:35:32;19.77;;;12.25;;
42488;SDS011;28118;52.388;9.452;2022-08-05T03:38:06;23.70;;;14.02;;
42488;SDS011;28118;52.388;9.452;2022-08-05T03:40:38;21.08;;;15.63;;
42488;SDS011;28118;52.388;9.452;2022-08-05T03:43:10;20.02;;;12.95;;
42488;SDS011;28118;52.388;9.452;2022-08-05T03:45:57;23.25;;;13.27;;
42488;SDS011;28118;52.388;9.452;2022-08-05T03:48:25;19.33;;;13.32;;
42488;SDS011;28118;52.388;9.452;2022-08-05T03:53:59;25.98;;;15.48;;
42488;SDS011;28118;52.388;9.452;2022-08-05T03:57:09;16.38;;;14.15;;
42488;SDS011;28118;52.388;9.452;2022-08-05T03:59:45;16.85;;;14.73;;
42488;SDS011;28118;52.388;9.452;2022-08-05T04:02:24;14.90;;;13.60;;
42488;SDS011;28118;52.388;9.452;2022-08-05T04:05:10;22.30;;;14.43;;
42488;SDS011;28118;52.388;9.452;2022-08-05T04:07:38;24.85;;;18.17;;
42488;SDS011;28118;52.388;9.452;2022-08-05T04:10:23;34.80;;;17.15;;
42488;SDS011;28118;52.388;9.452;2022-08-05T04:12:58;21.60;;;15.40;;
42488;SDS011;28118;52.388;9.452;2022-08-05T04:15:29;17.73;;;15.15;;
42488;SDS011;28118;52.388;9.452;2022-08-05T04:18:04;24.80;;;15.18;;
42488;SDS011;28118;52.388;9.452;2022-08-05T04:20:34;21.73;;;14.50;;
42488;SDS011;28118;52.388;9.452;2022-08-05T04:23:01;17.08;;;14.95;;
42488;SDS011;28118;52.388;9.452;2022-08-05T04:25:28;25.23;;;16.33;;
42488;SDS011;28118;52.388;9.452;2022-08-05T04:28:15;29.20;;;16.17;;
42488;SDS011;28118;52.388;9.452;2022-08-05T04:30:43;22.33;;;15.65;;
42488;SDS011;28118;52.388;9.452;2022-08-05T04:33:10;24.30;;;16.10;;
42488;SDS011;28118;52.388;9.452;2022-08-05T04:35:37;18.05;;;15.48;;
42488;SDS011;28118;52.388;9.452;2022-08-05T04:38:24;23.88;;;17.52;;
42488;SDS011;28118;52.388;9.452;2022-08-05T04:41:05;30.70;;;14.93;;
42488;SDS011;28118;52.388;9.452;2022-08-05T04:43:34;23.00;;;16.30;;
42488;SDS011;28118;52.388;9.452;2022-08-05T04:46:02;18.15;;;12.20;;
42488;SDS011;28118;52.388;9.452;2022-08-05T04:48:30;25.55;;;14.90;;
42488;SDS011;28118;52.388;9.452;2022-08-05T04:50:57;19.75;;;14.07;;
42488;SDS011;28118;52.388;9.452;2022-08-05T04:53:35;18.00;;;14.68;;
42488;SDS011;28118;52.388;9.452;2022-08-05T04:56:04;20.20;;;13.68;;
42488;SDS011;28118;52.388;9.452;2022-08-05T04:58:54;16.58;;;12.23;;
42488;SDS011;28118;52.388;9.452;2022-08-05T05:01:21;13.73;;;12.25;;
42488;SDS011;28118;52.388;9.452;2022-08-05T05:04:08;23.65;;;14.98;;
42488;SDS011;28118;52.388;9.452;2022-08-05T05:06:35;17.75;;;11.43;;
42488;SDS011;28118;52.388;9.452;2022-08-05T05:09:14;16.38;;;9.93;;
42488;SDS011;28118;52.388;9.452;2022-08-05T05:11:43;17.23;;;13.27;;
42488;SDS011;28118;52.388;9.452;2022-08-05T05:14:22;17.73;;;13.38;;
42488;SDS011;28118;52.388;9.452;2022-08-05T05:16:57;14.73;;;10.23;;
42488;SDS011;28118;52.388;9.452;2022-08-05T05:19:25;14.32;;;12.63;;
42488;SDS011;28118;52.388;9.452;2022-08-05T05:22:09;14.90;;;10.55;;
42488;SDS011;28118;52.388;9.452;2022-08-05T05:24:51;25.98;;;10.85;;
42488;SDS011;28118;52.388;9.452;2022-08-05T05:27:26;11.43;;;9.25;;
42488;SDS011;28118;52.388;9.452;2022-08-05T05:30:15;12.30;;;9.93;;
42488;SDS011;28118;52.388;9.452;2022-08-05T05:33:01;15.05;;;9.40;;
42488;SDS011;28118;52.388;9.452;2022-08-05T05:35:45;14.93;;;9.73;;
42488;SDS011;28118;52.388;9.452;2022-08-05T05:38:13;14.60;;;9.80;;
42488;SDS011;28118;52.388;9.452;2022-08-05T05:40:53;15.23;;;11.18;;
42488;SDS011;28118;52.388;9.452;2022-08-05T05:43:21;14.18;;;8.10;;
42488;SDS011;28118;52.388;9.452;2022-08-05T05:46:08;17.65;;;7.85;;
42488;SDS011;28118;52.388;9.452;2022-08-05T05:48:41;26.15;;;9.85;;
42488;SDS011;28118;52.388;9.452;2022-08-05T05:51:09;12.45;;;8.35;;
42488;SDS011;28118;52.388;9.452;2022-08-05T05:53:41;8.27;;;7.45;;
42488;SDS011;28118;52.388;9.452;2022-08-05T05:56:27;20.90;;;8.02;;
42488;SDS011;28118;52.388;9.452;2022-08-05T05:58:58;17.63;;;6.32;;
42488;SDS011;28118;52.388;9.452;2022-08-05T06:01:29;11.10;;;6.60;;
42488;SDS011;28118;52.388;9.452;2022-08-05T06:04:03;6.10;;;5.32;;
42488;SDS011;28118;52.388;9.452;2022-08-05T06:06:38;6.50;;;4.68;;
42488;SDS011;28118;52.388;9.452;2022-08-05T06:09:08;8.35;;;7.55;;
42488;SDS011;28118;52.388;9.452;2022-08-05T06:14:31;15.98;;;5.70;;
42488;SDS011;28118;52.388;9.452;2022-08-05T06:17:00;11.18;;;6.80;;
42488;SDS011;28118;52.388;9.452;2022-08-05T06:19:48;7.50;;;5.82;;
42488;SDS011;28118;52.388;9.452;2022-08-05T06:22:28;10.50;;;7.10;;
42488;SDS011;28118;52.388;9.452;2022-08-05T06:24:59;7.50;;;5.53;;
42488;SDS011;28118;52.388;9.452;2022-08-05T06:27:46;9.70;;;6.45;;
42488;SDS011;28118;52.388;9.452;2022-08-05T06:30:33;7.72;;;6.78;;
42488;SDS011;28118;52.388;9.452;2022-08-05T06:33:00;9.43;;;6.53;;
42488;SDS011;28118;52.388;9.452;2022-08-05T06:35:26;10.90;;;6.43;;
42488;SDS011;28118;52.388;9.452;2022-08-05T06:38:13;18.58;;;7.07;;
42488;SDS011;28118;52.388;9.452;2022-08-05T06:40:41;9.32;;;7.40;;
42488;SDS011;28118;52.388;9.452;2022-08-05T06:43:10;8.20;;;6.55;;
42488;SDS011;28118;52.388;9.452;2022-08-05T06:45:57;10.48;;;8.27;;
42488;SDS011;28118;52.388;9.452;2022-08-05T06:48:32;11.80;;;8.40;;
42488;SDS011;28118;52.388;9.452;2022-08-05T06:51:19;11.50;;;8.20;;
42488;SDS011;28118;52.388;9.452;2022-08-05T06:53:55;10.18;;;8.27;;
42488;SDS011;28118;52.388;9.452;2022-08-05T06:56:27;8.48;;;6.82;;
42488;SDS011;28118;52.388;9.452;2022-08-05T06:58:55;12.60;;;7.65;;
42488;SDS011;28118;52.388;9.452;2022-08-05T07:01:22;16.67;;;10.07;;
42488;SDS011;28118;52.388;9.452;2022-08-05T07:03:57;8.68;;;7.82;;
42488;SDS011;28118;52.388;9.452;2022-08-05T07:06:27;19.42;;;8.38;;
42488;SDS011;28118;52.388;9.452;2022-08-05T07:08:54;11.10;;;8.20;;
42488;SDS011;28118;52.388;9.452;2022-08-05T07:11:24;9.68;;;7.47;;
42488;SDS011;28118;52.388;9.452;2022-08-05T07:13:52;14.23;;;7.90;;
42488;SDS011;28118;52.388;9.452;2022-08-05T07:16:46;8.02;;;6.78;;
42488;SDS011;28118;52.388;9.452;2022-08-05T07:19:36;11.73;;;9.40;;
42488;SDS011;28118;52.388;9.452;2022-08-05T07:22:23;11.10;;;7.28;;
42488;SDS011;28118;52.388;9.452;2022-08-05T07:24:58;9.40;;;8.40;;
42488;SDS011;28118;52.388;9.452;2022-08-05T07:27:47;14.95;;;6.78;;
42488;SDS011;28118;52.388;9.452;2022-08-05T07:30:27;8.50;;;7.57;;
42488;SDS011;28118;52.388;9.452;2022-08-05T07:32:58;9.80;;;7.32;;
42488;SDS011;28118;52.388;9.452;2022-08-05T07:35:34;8.63;;;7.60;;
42488;SDS011;28118;52.388;9.452;2022-08-05T07:38:20;9.73;;;8.35;;
42488;SDS011;28118;52.388;9.452;2022-08-05T07:41:00;10.90;;;7.80;;
42488;SDS011;28118;52.388;9.452;2022-08-05T07:43:54;11.98;;;6.50;;
42488;SDS011;28118;52.388;9.452;2022-08-05T07:46:25;10.25;;;8.10;;
42488;SDS011;28118;52.388;9.452;2022-08-05T07:48:56;12.25;;;8.55;;
42488;SDS011;28118;52.388;9.452;2022-08-05T07:51:34;10.88;;;8.32;;
42488;SDS011;28118;52.388;9.452;2022-08-05T07:54:13;14.52;;;9.30;;
42488;SDS011;28118;52.388;9.452;2022-08-05T07:56:40;8.20;;;6.95;;
42488;SDS011;28118;52.388;9.452;2022-08-05T07:59:27;10.75;;;7.70;;
42488;SDS011;28118;52.388;9.452;2022-08-05T08:02:06;8.77;;;6.03;;
42488;SDS011;28118;52.388;9.452;2022-08-05T08:04:43;8.00;;;6.43;;
42488;SDS011;28118;52.388;9.452;2022-08-05T08:07:11;7.35;;;5.57;;
42488;SDS011;28118;52.388;9.452;2022-08-05T08:09:38;5.78;;;4.50;;
42488;SDS011;28118;52.388;9.452;2022-08-05T08:12:05;8.75;;;6.22;;
42488;SDS011;28118;52.388;9.452;2022-08-05T08:14:52;7.22;;;6.53;;
42488;SDS011;28118;52.388;9.452;2022-08-05T08:17:19;8.18;;;7.35;;
42488;SDS011;28118;52.388;9.452;2022-08-05T08:19:46;12.55;;;8.18;;
42488;SDS011;28118;52.388;9.452;2022-08-05T08:22:33;7.38;;;6.78;;
42488;SDS011;28118;52.388;9.452;2022-08-05T08:25:00;9.32;;;8.40;;
42488;SDS011;28118;52.388;9.452;2022-08-05T08:27:29;21.10;;;8.45;;
42488;SDS011;28118;52.388;9.452;2022-08-05T08:30:07;13.63;;;7.93;;
42488;SDS011;28118;52.388;9.452;2022-08-05T08:32:56;20.55;;;8.23;;
42488;SDS011;28118;52.388;9.452;2022-08-05T08:35:28;18.08;;;8.70;;
42488;SDS011;28118;52.388;9.452;2022-08-05T08:38:05;8.60;;;7.78;;
42488;SDS011;28118;52.388;9.452;2022-08-05T08:40:33;9.27;;;7.95;;
42488;SDS011;28118;52.388;9.452;2022-08-05T08:43:01;6.90;;;6.30;;
42488;SDS011;28118;52.388;9.452;2022-08-05T08:45:49;6.53;;;5.15;;
42488;SDS011;28118;52.388;9.452;2022-08-05T08:48:19;9.43;;;7.40;;
42488;SDS011;28118;52.388;9.452;2022-08-05T08:51:06;8.73;;;5.60;;
42488;SDS011;28118;52.388;9.452;2022-08-05T08:53:53;9.15;;;4.32;;
42488;SDS011;28118;52.388;9.452;2022-08-05T08:56:20;6.80;;;4.13;;
42488;SDS011;28118;52.388;9.452;2022-08-05T08:58:52;4.55;;;4.15;;
42488;SDS011;28118;52.388;9.452;2022-08-05T09:01:19;5.47;;;3.35;;
42488;SDS011;28118;52.388;9.452;2022-08-05T09:03:50;4.22;;;3.78;;
42488;SDS011;28118;52.388;9.452;2022-08-05T09:06:23;4.97;;;3.45;;
42488;SDS011;28118;52.388;9.452;2022-08-05T09:08:55;10.73;;;4.20;;
42488;SDS011;28118;52.388;9.452;2022-08-05T09:11:24;4.82;;;2.72;;
42488;SDS011;28118;52.388;9.452;2022-08-05T09:14:11;7.05;;;4.00;;
42488;SDS011;28118;52.388;9.452;2022-08-05T09:16:58;5.53;;;3.90;;
42488;SDS011;28118;52.388;9.452;2022-08-05T09:19:26;5.22;;;3.20;;
42488;SDS011;28118;52.388;9.452;2022-08-05T09:22:13;3.75;;;3.40;;
42488;SDS011;28118;52.388;9.452;2022-08-05T09:24:59;5.90;;;3.90;;
42488;SDS011;28118;52.388;9.452;2022-08-05T09:27:47;6.45;;;4.43;;
42488;SDS011;28118;52.388;9.452;2022-08-05T09:30:32;5.82;;;4.50;;
42488;SDS011;28118;52.388;9.452;2022-08-05T09:33:02;4.45;;;3.58;;
42488;SDS011;28118;52.388;9.452;2022-08-05T09:35:30;6.18;;;3.53;;
42488;SDS011;28118;52.388;9.452;2022-08-05T09:37:58;3.70;;;3.40;;
42488;SDS011;28118;52.388;9.452;2022-08-05T09:40:43;7.30;;;3.72;;
42488;SDS011;28118;52.388;9.452;2022-08-05T09:43:26;4.97;;;4.18;;
42488;SDS011;28118;52.388;9.452;2022-08-05T09:46:07;6.18;;;3.85;;
42488;SDS011;28118;52.388;9.452;2022-08-05T09:48:55;11.48;;;4.03;;
42488;SDS011;28118;52.388;9.452;2022-08-05T09:51:34;4.40;;;4.00;;
42488;SDS011;28118;52.388;9.452;2022-08-05T09:54:05;5.50;;;5.00;;
42488;SDS011;28118;52.388;9.452;2022-08-05T09:56:35;7.72;;;5.78;;
42488;SDS011;28118;52.388;9.452;2022-08-05T10:01:36;13.07;;;5.22;;
42488;SDS011;28118;52.388;9.452;2022-08-05T10:04:12;5.05;;;4.65;;
42488;SDS011;28118;52.388;9.452;2022-08-05T10:06:52;6.57;;;5.03;;
42488;SDS011;28118;52.388;9.452;2022-08-05T10:12:06;5.05;;;4.57;;
42488;SDS011;28118;52.388;9.452;2022-08-05T10:15:05;5.90;;;4.55;;
42488;SDS011;28118;52.388;9.452;2022-08-05T10:18:01;4.47;;;3.90;;
42488;SDS011;28118;52.388;9.452;2022-08-05T10:20:33;6.22;;;4.78;;
42488;SDS011;28118;52.388;9.452;2022-08-05T10:23:02;10.35;;;5.50;;
42488;SDS011;28118;52.388;9.452;2022-08-05T10:25:47;6.25;;;5.45;;
42488;SDS011;28118;52.388;9.452;2022-08-05T10:28:15;12.07;;;6.00;;
42488;SDS011;28118;52.388;9.452;2022-08-05T10:30:55;11.10;;;6.10;;
42488;SDS011;28118;52.388;9.452;2022-08-05T10:33:43;12.80;;;7.00;;
42488;SDS011;28118;52.388;9.452;2022-08-05T10:36:17;8.10;;;5.70;;
42488;SDS011;28118;52.388;9.452;2022-08-05T10:38:48;6.75;;;5.78;;
42488;SDS011;28118;52.388;9.452;2022-08-05T10:41:26;9.30;;;5.90;;
42488;SDS011;28118;52.388;9.452;2022-08-05T10:44:15;9.50;;;6.68;;
42488;SDS011;28118;52.388;9.452;2022-08-05T10:46:51;7.13;;;6.53;;
42488;SDS011;28118;52.388;9.452;2022-08-05T10:49:22;8.30;;;7.50;;
42488;SDS011;28118;52.388;9.452;2022-08-05T10:51:58;7.85;;;7.10;;
42488;SDS011;28118;52.388;9.452;2022-08-05T10:54:48;7.05;;;6.00;;
42488;SDS011;28118;52.388;9.452;2022-08-05T10:57:29;6.05;;;5.45;;
42488;SDS011;28118;52.388;9.452;2022-08-05T11:00:06;17.63;;;6.47;;
42488;SDS011;28118;52.388;9.452;2022-08-05T11:06:09;9.02;;;6.30;;
42488;SDS011;28118;52.388;9.452;2022-08-05T11:12:05;15.63;;;8.27;;
42488;SDS011;28118;52.388;9.452;2022-08-05T11:15:08;10.55;;;6.93;;
42488;SDS011;28118;52.388;9.452;2022-08-05T11:17:50;10.98;;;7.75;;
42488;SDS011;28118;52.388;9.452;2022-08-05T11:20:31;9.90;;;7.85;;
42488;SDS011;28118;52.388;9.452;2022-08-05T11:22:59;9.27;;;8.32;;
42488;SDS011;28118;52.388;9.452;2022-08-05T11:28:36;11.52;;;7.60;;
42488;SDS011;28118;52.388;9.452;2022-08-05T11:36:14;8.55;;;6.18;;
42488;SDS011;28118;52.388;9.452;2022-08-05T11:39:06;8.48;;;7.25;;
42488;SDS011;28118;52.388;9.452;2022-08-05T11:41:34;7.78;;;7.00;;
42488;SDS011;28118;52.388;9.452;2022-08-05T11:44:22;14.77;;;7.75;;
42488;SDS011;28118;52.388;9.452;2022-08-05T11:50:05;6.88;;;6.15;;
42488;SDS011;28118;52.388;9.452;2022-08-05T11:52:32;10.27;;;7.32;;
42488;SDS011;28118;52.388;9.452;2022-08-05T11:55:00;7.22;;;6.05;;
42488;SDS011;28118;52.388;9.452;2022-08-05T11:57:33;7.03;;;5.40;;
42488;SDS011;28118;52.388;9.452;2022-08-05T12:00:26;8.02;;;6.43;;
42488;SDS011;28118;52.388;9.452;2022-08-05T12:02:55;8.65;;;6.95;;
42488;SDS011;28118;52.388;9.452;2022-08-05T12:05:25;7.70;;;6.97;;
42488;SDS011;28118;52.388;9.452;2022-08-05T12:08:05;6.93;;;6.25;;
42488;SDS011;28118;52.388;9.452;2022-08-05T12:10:36;11.47;;;7.20;;
42488;SDS011;28118;52.388;9.452;2022-08-05T12:13:12;6.43;;;5.90;;
42488;SDS011;28118;52.388;9.452;2022-08-05T12:15:44;10.10;;;6.18;;
42488;SDS011;28118;52.388;9.452;2022-08-05T12:18:18;8.35;;;7.60;;
42488;SDS011;28118;52.388;9.452;2022-08-05T12:20:45;12.45;;;7.70;;
42488;SDS011;28118;52.388;9.452;2022-08-05T12:23:13;8.18;;;7.28;;
42488;SDS011;28118;52.388;9.452;2022-08-05T12:25:49;8.77;;;6.03;;
42488;SDS011;28118;52.388;9.452;2022-08-05T12:28:40;10.65;;;8.20;;
42488;SDS011;28118;52.388;9.452;2022-08-05T12:31:06;13.30;;;6.95;;
42488;SDS011;28118;52.388;9.452;2022-08-05T12:33:33;8.07;;;6.63;;
42488;SDS011;28118;52.388;9.452;2022-08-05T12:36:04;6.72;;;6.07;;
42488;SDS011;28118;52.388;9.452;2022-08-05T12:38:35;5.90;;;5.25;;
42488;SDS011;28118;52.388;9.452;2022-08-05T12:41:11;6.55;;;5.95;;
42488;SDS011;28118;52.388;9.452;2022-08-05T12:43:50;8.85;;;5.13;;
42488;SDS011;28118;52.388;9.452;2022-08-05T12:46:28;4.38;;;3.97;;
42488;SDS011;28118;52.388;9.452;2022-08-05T12:51:26;5.15;;;3.83;;
42488;SDS011;28118;52.388;9.452;2022-08-05T12:54:18;6.63;;;2.95;;
42488;SDS011;28118;52.388;9.452;2022-08-05T12:56:55;3.00;;;2.70;;
42488;SDS011;28118;52.388;9.452;2022-08-05T12:59:28;2.90;;;2.45;;
42488;SDS011;28118;52.388;9.452;2022-08-05T13:02:24;2.78;;;2.35;;
42488;SDS011;28118;52.388;9.452;2022-08-05T13:04:55;3.00;;;2.35;;
42488;SDS011;28118;52.388;9.452;2022-08-05T13:07:24;2.83;;;2.63;;
42488;SDS011;28118;52.388;9.452;2022-08-05T13:10:13;4.15;;;2.83;;
42488;SDS011;28118;52.388;9.452;2022-08-05T13:12:45;2.13;;;1.92;;
42488;SDS011;28118;52.388;9.452;2022-08-05T13:15:32;4.00;;;3.70;;
42488;SDS011;28118;52.388;9.452;2022-08-05T13:18:16;7.40;;;2.83;;
42488;SDS011;28118;52.388;9.452;2022-08-05T13:20:45;2.60;;;2.15;;
42488;SDS011;28118;52.388;9.452;2022-08-05T13:23:15;3.97;;;2.80;;
42488;SDS011;28118;52.388;9.452;2022-08-05T13:25:47;4.28;;;3.88;;
42488;SDS011;28118;52.388;9.452;2022-08-05T13:28:24;6.07;;;3.42;;
42488;SDS011;28118;52.388;9.452;2022-08-05T13:30:52;3.40;;;2.42;;
42488;SDS011;28118;52.388;9.452;2022-08-05T13:33:19;3.67;;;3.28;;
42488;SDS011;28118;52.388;9.452;2022-08-05T13:36:06;6.13;;;3.42;;
42488;SDS011;28118;52.388;9.452;2022-08-05T13:38:34;3.60;;;3.20;;
42488;SDS011;28118;52.388;9.452;2022-08-05T13:41:08;7.35;;;3.80;;
42488;SDS011;28118;52.388;9.452;2022-08-05T13:43:36;3.65;;;3.30;;
42488;SDS011;28118;52.388;9.452;2022-08-05T13:46:11;6.00;;;3.50;;
42488;SDS011;28118;52.388;9.452;2022-08-05T13:48:38;3.50;;;3.20;;
42488;SDS011;28118;52.388;9.452;2022-08-05T13:51:26;2.35;;;2.15;;
42488;SDS011;28118;52.388;9.452;2022-08-05T13:54:06;3.25;;;2.92;;
42488;SDS011;28118;52.388;9.452;2022-08-05T13:56:38;10.13;;;2.92;;
42488;SDS011;28118;52.388;9.452;2022-08-05T13:59:16;3.15;;;2.85;;
42488;SDS011;28118;52.388;9.452;2022-08-05T14:01:46;6.43;;;3.22;;
42488;SDS011;28118;52.388;9.452;2022-08-05T14:04:28;3.72;;;2.10;;
42488;SDS011;28118;52.388;9.452;2022-08-05T14:07:20;2.47;;;2.00;;
42488;SDS011;28118;52.388;9.452;2022-08-05T14:10:20;5.63;;;3.58;;
42488;SDS011;28118;52.388;9.452;2022-08-05T14:12:54;4.80;;;3.65;;
42488;SDS011;28118;52.388;9.452;2022-08-05T14:15:22;5.35;;;4.25;;
42488;SDS011;28118;52.388;9.452;2022-08-05T14:18:10;5.63;;;3.85;;
42488;SDS011;28118;52.388;9.452;2022-08-05T14:20:43;3.10;;;2.78;;
42488;SDS011;28118;52.388;9.452;2022-08-05T14:23:12;3.72;;;2.92;;
42488;SDS011;28118;52.388;9.452;2022-08-05T14:25:48;6.55;;;3.03;;
42488;SDS011;28118;52.388;9.452;2022-08-05T14:28:19;3.85;;;3.45;;
42488;SDS011;28118;52.388;9.452;2022-08-05T14:30:52;8.45;;;2.92;;
42488;SDS011;28118;52.388;9.452;2022-08-05T14:33:19;4.68;;;2.95;;
42488;SDS011;28118;52.388;9.452;2022-08-05T14:35:48;4.22;;;3.38;;
42488;SDS011;28118;52.388;9.452;2022-08-05T14:38:17;8.98;;;3.55;;
42488;SDS011;28118;52.388;9.452;2022-08-05T14:40:59;4.18;;;3.08;;
42488;SDS011;28118;52.388;9.452;2022-08-05T14:43:32;6.28;;;3.00;;
42488;SDS011;28118;52.388;9.452;2022-08-05T14:46:20;5.38;;;3.70;;
42488;SDS011;28118;52.388;9.452;2022-08-05T14:48:47;3.50;;;2.55;;
42488;SDS011;28118;52.388;9.452;2022-08-05T14:51:15;3.30;;;3.00;;
42488;SDS011;28118;52.388;9.452;2022-08-05T14:53:43;4.20;;;3.38;;
42488;SDS011;28118;52.388;9.452;2022-08-05T14:56:10;4.68;;;3.22;;
42488;SDS011;28118;52.388;9.452;2022-08-05T14:58:38;4.82;;;3.63;;
42488;SDS011;28118;52.388;9.452;2022-08-05T15:01:18;4.45;;;3.88;;
42488;SDS011;28118;52.388;9.452;2022-08-05T15:04:05;3.95;;;3.38;;
42488;SDS011;28118;52.388;9.452;2022-08-05T15:06:36;4.47;;;3.05;;
42488;SDS011;28118;52.388;9.452;2022-08-05T15:09:05;8.00;;;4.47;;
42488;SDS011;28118;52.388;9.452;2022-08-05T15:11:32;3.90;;;3.50;;
42488;SDS011;28118;52.388;9.452;2022-08-05T15:14:18;3.70;;;3.40;;
42488;SDS011;28118;52.388;9.452;2022-08-05T15:17:06;3.97;;;3.45;;
42488;SDS011;28118;52.388;9.452;2022-08-05T15:19:54;4.05;;;3.65;;
42488;SDS011;28118;52.388;9.452;2022-08-05T15:22:20;5.10;;;3.13;;
42488;SDS011;28118;52.388;9.452;2022-08-05T15:27:20;3.58;;;3.28;;
42488;SDS011;28118;52.388;9.452;2022-08-05T15:29:50;7.30;;;3.67;;
42488;SDS011;28118;52.388;9.452;2022-08-05T15:32:19;5.03;;;3.78;;
42488;SDS011;28118;52.388;9.452;2022-08-05T15:34:52;2.30;;;2.10;;
42488;SDS011;28118;52.388;9.452;2022-08-05T15:37:19;4.47;;;3.95;;
42488;SDS011;28118;52.388;9.452;2022-08-05T15:40:06;4.97;;;3.33;;
42488;SDS011;28118;52.388;9.452;2022-08-05T15:42:53;3.58;;;2.78;;
42488;SDS011;28118;52.388;9.452;2022-08-05T15:45:34;3.58;;;3.28;;
42488;SDS011;28118;52.388;9.452;2022-08-05T15:48:04;3.28;;;2.97;;
42488;SDS011;28118;52.388;9.452;2022-08-05T15:50:32;4.00;;;2.70;;
42488;SDS011;28118;52.388;9.452;2022-08-05T15:52:59;3.83;;;2.80;;
42488;SDS011;28118;52.388;9.452;2022-08-05T15:55:30;5.90;;;2.25;;
42488;SDS011;28118;52.388;9.452;2022-08-05T15:58:17;4.88;;;2.97;;
42488;SDS011;28118;52.388;9.452;2022-08-05T16:00:48;5.60;;;3.30;;
42488;SDS011;28118;52.388;9.452;2022-08-05T16:03:29;4.00;;;3.60;;
42488;SDS011;28118;52.388;9.452;2022-08-05T16:05:58;5.60;;;3.83;;
42488;SDS011;28118;52.388;9.452;2022-08-05T16:08:25;6.25;;;2.85;;
42488;SDS011;28118;52.388;9.452;2022-08-05T16:10:56;4.30;;;3.90;;